Terminal Aerodrome Forecast
Issued by NWS Green Bay, WI

Home | Current Version | Previous Version | Graphics & Text | Print | Product List | Glossary On
Versions: 1 2 3 4 5 6 7 8 9 10 11 12 13 14 15 16 17 18 19 20 21 22 23 24 25 26 27 28 29 30 31
000
FTUS43 KGRB 241537 AAC
TAFGRB
TAF AMD
KGRB 241537Z 2416/2512 16008KT P6SM SCT006 OVC012
     FM241700 23010KT P6SM SCT015 BKN025
     FM241800 24010G20KT P6SM SCT030
     FM242100 26012G20KT P6SM SCT100
     FM250200 28008KT P6SM FEW250=

USA.gov is the U.S. government's official web portal to all federal, state and local government web resources and services.